sensor_id;sensor_type;location;lat;lon;timestamp;P1;durP1;ratioP1;P2;durP2;ratioP2
70008;SDS011;59542;37.950;-122.338;2023-05-07T00:02:01;2.03;;;0.70;;
70008;SDS011;59542;37.950;-122.338;2023-05-07T00:04:29;0.75;;;0.40;;
70008;SDS011;59542;37.950;-122.338;2023-05-07T00:07:01;1.83;;;0.77;;
70008;SDS011;59542;37.950;-122.338;2023-05-07T00:09:28;0.70;;;0.60;;
70008;SDS011;59542;37.950;-122.338;2023-05-07T00:11:54;2.38;;;0.70;;
70008;SDS011;59542;37.950;-122.338;2023-05-07T00:14:20;1.75;;;0.60;;
70008;SDS011;59542;37.950;-122.338;2023-05-07T00:16:46;1.00;;;0.70;;
70008;SDS011;59542;37.950;-122.338;2023-05-07T00:19:13;0.70;;;0.55;;
70008;SDS011;59542;37.950;-122.338;2023-05-07T00:21:39;1.55;;;0.50;;
70008;SDS011;59542;37.950;-122.338;2023-05-07T00:24:05;1.50;;;0.63;;
70008;SDS011;59542;37.950;-122.338;2023-05-07T00:26:31;1.25;;;0.55;;
70008;SDS011;59542;37.950;-122.338;2023-05-07T00:28:58;1.48;;;0.75;;
70008;SDS011;59542;37.950;-122.338;2023-05-07T00:31:25;1.77;;;0.85;;
70008;SDS011;59542;37.950;-122.338;2023-05-07T00:33:51;1.35;;;0.50;;
70008;SDS011;59542;37.950;-122.338;2023-05-07T00:36:17;2.80;;;0.80;;
70008;SDS011;59542;37.950;-122.338;2023-05-07T00:38:44;2.95;;;0.75;;
70008;SDS011;59542;37.950;-122.338;2023-05-07T00:41:10;1.80;;;0.70;;
70008;SDS011;59542;37.950;-122.338;2023-05-07T00:43:36;2.85;;;1.10;;
70008;SDS011;59542;37.950;-122.338;2023-05-07T00:46:03;1.90;;;1.05;;
70008;SDS011;59542;37.950;-122.338;2023-05-07T00:48:30;1.35;;;0.90;;
70008;SDS011;59542;37.950;-122.338;2023-05-07T00:50:57;1.20;;;0.60;;
70008;SDS011;59542;37.950;-122.338;2023-05-07T00:53:23;1.08;;;0.60;;
70008;SDS011;59542;37.950;-122.338;2023-05-07T00:55:50;1.60;;;1.08;;
70008;SDS011;59542;37.950;-122.338;2023-05-07T00:58:16;1.63;;;0.65;;
70008;SDS011;59542;37.950;-122.338;2023-05-07T01:00:43;3.05;;;1.00;;
70008;SDS011;59542;37.950;-122.338;2023-05-07T01:03:09;2.83;;;1.00;;
70008;SDS011;59542;37.950;-122.338;2023-05-07T01:05:35;1.50;;;0.70;;
70008;SDS011;59542;37.950;-122.338;2023-05-07T01:08:01;1.73;;;0.65;;
70008;SDS011;59542;37.950;-122.338;2023-05-07T01:10:30;1.52;;;0.70;;
70008;SDS011;59542;37.950;-122.338;2023-05-07T01:12:57;1.63;;;0.60;;
70008;SDS011;59542;37.950;-122.338;2023-05-07T01:15:25;3.20;;;0.95;;
70008;SDS011;59542;37.950;-122.338;2023-05-07T01:17:51;1.48;;;0.60;;
70008;SDS011;59542;37.950;-122.338;2023-05-07T01:20:18;1.75;;;0.80;;
70008;SDS011;59542;37.950;-122.338;2023-05-07T01:22:44;2.25;;;1.08;;
70008;SDS011;59542;37.950;-122.338;2023-05-07T01:25:11;1.67;;;0.63;;
70008;SDS011;59542;37.950;-122.338;2023-05-07T01:27:40;2.50;;;0.77;;
70008;SDS011;59542;37.950;-122.338;2023-05-07T01:30:07;1.52;;;1.33;;
70008;SDS011;59542;37.950;-122.338;2023-05-07T01:33:19;1.38;;;0.80;;
70008;SDS011;59542;37.950;-122.338;2023-05-07T01:35:30;4.65;;;0.85;;
70008;SDS011;59542;37.950;-122.338;2023-05-07T01:38:01;1.02;;;0.73;;
70008;SDS011;59542;37.950;-122.338;2023-05-07T01:40:31;1.83;;;0.90;;
70008;SDS011;59542;37.950;-122.338;2023-05-07T01:42:58;1.95;;;0.93;;
70008;SDS011;59542;37.950;-122.338;2023-05-07T01:45:24;2.47;;;1.20;;
70008;SDS011;59542;37.950;-122.338;2023-05-07T01:47:51;6.05;;;0.90;;
70008;SDS011;59542;37.950;-122.338;2023-05-07T01:50:18;1.10;;;0.70;;
70008;SDS011;59542;37.950;-122.338;2023-05-07T01:52:44;1.38;;;0.80;;
70008;SDS011;59542;37.950;-122.338;2023-05-07T01:55:11;1.80;;;0.90;;
70008;SDS011;59542;37.950;-122.338;2023-05-07T01:57:38;2.17;;;1.00;;
70008;SDS011;59542;37.950;-122.338;2023-05-07T02:00:04;2.05;;;0.95;;
70008;SDS011;59542;37.950;-122.338;2023-05-07T02:02:31;2.25;;;1.00;;
70008;SDS011;59542;37.950;-122.338;2023-05-07T02:04:57;2.20;;;0.90;;
70008;SDS011;59542;37.950;-122.338;2023-05-07T02:07:24;0.80;;;0.75;;
70008;SDS011;59542;37.950;-122.338;2023-05-07T02:09:50;1.73;;;1.00;;
70008;SDS011;59542;37.950;-122.338;2023-05-07T02:12:16;1.67;;;0.80;;
70008;SDS011;59542;37.950;-122.338;2023-05-07T02:14:42;3.05;;;0.80;;
70008;SDS011;59542;37.950;-122.338;2023-05-07T02:17:08;1.80;;;0.85;;
70008;SDS011;59542;37.950;-122.338;2023-05-07T02:19:35;3.47;;;1.00;;
70008;SDS011;59542;37.950;-122.338;2023-05-07T02:22:01;1.88;;;1.05;;
70008;SDS011;59542;37.950;-122.338;2023-05-07T02:24:27;2.63;;;1.10;;
70008;SDS011;59542;37.950;-122.338;2023-05-07T02:26:53;2.65;;;0.95;;
70008;SDS011;59542;37.950;-122.338;2023-05-07T02:29:20;1.77;;;1.05;;
70008;SDS011;59542;37.950;-122.338;2023-05-07T02:31:46;2.65;;;1.20;;
70008;SDS011;59542;37.950;-122.338;2023-05-07T02:34:19;3.63;;;1.20;;
70008;SDS011;59542;37.950;-122.338;2023-05-07T02:36:45;1.70;;;0.98;;
70008;SDS011;59542;37.950;-122.338;2023-05-07T02:39:12;2.95;;;1.15;;
70008;SDS011;59542;37.950;-122.338;2023-05-07T02:41:38;1.95;;;1.20;;
70008;SDS011;59542;37.950;-122.338;2023-05-07T02:44:05;1.88;;;1.40;;
70008;SDS011;59542;37.950;-122.338;2023-05-07T02:46:31;1.58;;;1.27;;
70008;SDS011;59542;37.950;-122.338;2023-05-07T02:48:57;1.85;;;1.30;;
70008;SDS011;59542;37.950;-122.338;2023-05-07T02:51:23;2.03;;;1.27;;
70008;SDS011;59542;37.950;-122.338;2023-05-07T02:53:51;2.55;;;1.40;;
70008;SDS011;59542;37.950;-122.338;2023-05-07T02:56:17;3.78;;;1.50;;
70008;SDS011;59542;37.950;-122.338;2023-05-07T02:58:43;2.72;;;1.40;;
70008;SDS011;59542;37.950;-122.338;2023-05-07T03:01:10;1.67;;;1.27;;
70008;SDS011;59542;37.950;-122.338;2023-05-07T03:03:36;3.15;;;1.58;;
70008;SDS011;59542;37.950;-122.338;2023-05-07T03:06:02;1.60;;;1.15;;
70008;SDS011;59542;37.950;-122.338;2023-05-07T03:08:29;1.27;;;1.17;;
70008;SDS011;59542;37.950;-122.338;2023-05-07T03:10:55;3.28;;;1.30;;
70008;SDS011;59542;37.950;-122.338;2023-05-07T03:13:22;3.38;;;1.45;;
70008;SDS011;59542;37.950;-122.338;2023-05-07T03:15:48;3.28;;;1.40;;
70008;SDS011;59542;37.950;-122.338;2023-05-07T03:18:14;3.80;;;1.20;;
70008;SDS011;59542;37.950;-122.338;2023-05-07T03:20:40;4.38;;;1.40;;
70008;SDS011;59542;37.950;-122.338;2023-05-07T03:23:07;1.92;;;1.10;;
70008;SDS011;59542;37.950;-122.338;2023-05-07T03:25:33;1.17;;;1.00;;
70008;SDS011;59542;37.950;-122.338;2023-05-07T03:27:59;1.50;;;1.27;;
70008;SDS011;59542;37.950;-122.338;2023-05-07T03:30:25;3.05;;;1.30;;
70008;SDS011;59542;37.950;-122.338;2023-05-07T03:32:52;3.05;;;1.13;;
70008;SDS011;59542;37.950;-122.338;2023-05-07T03:35:18;2.80;;;1.27;;
70008;SDS011;59542;37.950;-122.338;2023-05-07T03:37:44;1.98;;;1.40;;
70008;SDS011;59542;37.950;-122.338;2023-05-07T03:40:10;3.20;;;1.67;;
70008;SDS011;59542;37.950;-122.338;2023-05-07T03:42:37;3.35;;;1.40;;
70008;SDS011;59542;37.950;-122.338;2023-05-07T03:45:03;2.22;;;1.40;;
70008;SDS011;59542;37.950;-122.338;2023-05-07T03:47:30;2.20;;;1.40;;
70008;SDS011;59542;37.950;-122.338;2023-05-07T03:49:56;3.13;;;1.00;;
70008;SDS011;59542;37.950;-122.338;2023-05-07T03:52:23;3.70;;;1.20;;
70008;SDS011;59542;37.950;-122.338;2023-05-07T03:54:52;3.58;;;1.10;;
70008;SDS011;59542;37.950;-122.338;2023-05-07T03:57:19;2.38;;;1.27;;
70008;SDS011;59542;37.950;-122.338;2023-05-07T03:59:45;1.65;;;1.10;;
70008;SDS011;59542;37.950;-122.338;2023-05-07T04:02:11;1.48;;;1.10;;
70008;SDS011;59542;37.950;-122.338;2023-05-07T04:04:38;1.70;;;1.23;;
70008;SDS011;59542;37.950;-122.338;2023-05-07T04:07:04;2.20;;;1.13;;
70008;SDS011;59542;37.950;-122.338;2023-05-07T04:09:30;1.58;;;1.27;;
70008;SDS011;59542;37.950;-122.338;2023-05-07T04:11:56;1.85;;;1.48;;
70008;SDS011;59542;37.950;-122.338;2023-05-07T04:14:22;5.13;;;1.60;;
70008;SDS011;59542;37.950;-122.338;2023-05-07T04:16:49;2.03;;;1.15;;
70008;SDS011;59542;37.950;-122.338;2023-05-07T04:19:15;3.70;;;1.60;;
70008;SDS011;59542;37.950;-122.338;2023-05-07T04:21:41;3.38;;;1.75;;
70008;SDS011;59542;37.950;-122.338;2023-05-07T04:24:07;4.88;;;1.70;;
70008;SDS011;59542;37.950;-122.338;2023-05-07T04:26:33;2.70;;;1.50;;
70008;SDS011;59542;37.950;-122.338;2023-05-07T04:29:00;3.00;;;1.88;;
70008;SDS011;59542;37.950;-122.338;2023-05-07T04:31:26;2.88;;;1.75;;
70008;SDS011;59542;37.950;-122.338;2023-05-07T04:33:52;2.40;;;1.63;;
70008;SDS011;59542;37.950;-122.338;2023-05-07T04:36:19;2.75;;;1.50;;
70008;SDS011;59542;37.950;-122.338;2023-05-07T04:38:45;2.50;;;1.42;;
70008;SDS011;59542;37.950;-122.338;2023-05-07T04:41:12;3.33;;;1.65;;
70008;SDS011;59542;37.950;-122.338;2023-05-07T04:43:38;3.83;;;1.80;;
70008;SDS011;59542;37.950;-122.338;2023-05-07T04:46:05;3.47;;;1.77;;
70008;SDS011;59542;37.950;-122.338;2023-05-07T04:48:31;3.88;;;1.92;;
70008;SDS011;59542;37.950;-122.338;2023-05-07T04:50:57;3.90;;;1.55;;
70008;SDS011;59542;37.950;-122.338;2023-05-07T04:53:24;3.38;;;2.72;;
70008;SDS011;59542;37.950;-122.338;2023-05-07T04:55:54;2.55;;;1.98;;
70008;SDS011;59542;37.950;-122.338;2023-05-07T04:58:22;5.32;;;3.42;;
70008;SDS011;59542;37.950;-122.338;2023-05-07T05:00:49;3.83;;;2.72;;
70008;SDS011;59542;37.950;-122.338;2023-05-07T05:03:15;3.40;;;1.70;;
70008;SDS011;59542;37.950;-122.338;2023-05-07T05:05:41;2.55;;;1.50;;
70008;SDS011;59542;37.950;-122.338;2023-05-07T05:08:07;2.47;;;1.20;;
70008;SDS011;59542;37.950;-122.338;2023-05-07T05:10:34;4.78;;;1.63;;
70008;SDS011;59542;37.950;-122.338;2023-05-07T05:13:00;4.65;;;1.13;;
70008;SDS011;59542;37.950;-122.338;2023-05-07T05:15:26;4.50;;;1.33;;
70008;SDS011;59542;37.950;-122.338;2023-05-07T05:17:52;2.28;;;1.40;;
70008;SDS011;59542;37.950;-122.338;2023-05-07T05:20:18;3.05;;;1.40;;
70008;SDS011;59542;37.950;-122.338;2023-05-07T05:22:45;2.95;;;1.48;;
70008;SDS011;59542;37.950;-122.338;2023-05-07T05:25:11;3.17;;;1.92;;
70008;SDS011;59542;37.950;-122.338;2023-05-07T05:27:37;3.45;;;1.73;;
70008;SDS011;59542;37.950;-122.338;2023-05-07T05:30:03;0.95;;;0.93;;
70008;SDS011;59542;37.950;-122.338;2023-05-07T05:32:30;2.55;;;1.50;;
70008;SDS011;59542;37.950;-122.338;2023-05-07T05:34:57;2.55;;;1.30;;
70008;SDS011;59542;37.950;-122.338;2023-05-07T05:37:23;2.15;;;1.40;;
70008;SDS011;59542;37.950;-122.338;2023-05-07T05:39:50;4.10;;;1.52;;
70008;SDS011;59542;37.950;-122.338;2023-05-07T05:42:17;4.07;;;1.60;;
70008;SDS011;59542;37.950;-122.338;2023-05-07T05:44:44;3.17;;;1.48;;
70008;SDS011;59542;37.950;-122.338;2023-05-07T05:47:10;2.38;;;1.42;;
70008;SDS011;59542;37.950;-122.338;2023-05-07T05:49:36;4.43;;;1.60;;
70008;SDS011;59542;37.950;-122.338;2023-05-07T05:52:02;2.88;;;1.40;;
70008;SDS011;59542;37.950;-122.338;2023-05-07T05:54:29;2.83;;;1.48;;
70008;SDS011;59542;37.950;-122.338;2023-05-07T05:56:55;1.40;;;1.25;;
70008;SDS011;59542;37.950;-122.338;2023-05-07T05:59:22;2.53;;;1.40;;
70008;SDS011;59542;37.950;-122.338;2023-05-07T06:01:48;3.13;;;1.40;;
70008;SDS011;59542;37.950;-122.338;2023-05-07T06:04:15;4.40;;;1.70;;
70008;SDS011;59542;37.950;-122.338;2023-05-07T06:06:41;6.55;;;1.80;;
70008;SDS011;59542;37.950;-122.338;2023-05-07T06:09:08;4.18;;;1.50;;
70008;SDS011;59542;37.950;-122.338;2023-05-07T06:11:35;5.80;;;1.73;;
70008;SDS011;59542;37.950;-122.338;2023-05-07T06:14:01;2.42;;;1.20;;
70008;SDS011;59542;37.950;-122.338;2023-05-07T06:16:27;5.57;;;1.48;;
70008;SDS011;59542;37.950;-122.338;2023-05-07T06:18:54;2.47;;;1.60;;
70008;SDS011;59542;37.950;-122.338;2023-05-07T06:21:20;3.67;;;1.50;;
70008;SDS011;59542;37.950;-122.338;2023-05-07T06:23:46;4.53;;;1.95;;
70008;SDS011;59542;37.950;-122.338;2023-05-07T06:26:12;3.90;;;1.55;;
70008;SDS011;59542;37.950;-122.338;2023-05-07T06:28:39;2.15;;;1.83;;
70008;SDS011;59542;37.950;-122.338;2023-05-07T06:31:14;1.90;;;1.30;;
70008;SDS011;59542;37.950;-122.338;2023-05-07T06:33:43;2.58;;;1.75;;
70008;SDS011;59542;37.950;-122.338;2023-05-07T06:36:10;5.65;;;2.10;;
70008;SDS011;59542;37.950;-122.338;2023-05-07T06:38:36;5.60;;;1.88;;
70008;SDS011;59542;37.950;-122.338;2023-05-07T06:41:03;3.85;;;1.90;;
70008;SDS011;59542;37.950;-122.338;2023-05-07T06:43:31;2.10;;;1.48;;
70008;SDS011;59542;37.950;-122.338;2023-05-07T06:45:57;4.95;;;2.17;;
70008;SDS011;59542;37.950;-122.338;2023-05-07T06:48:24;4.55;;;1.80;;
70008;SDS011;59542;37.950;-122.338;2023-05-07T06:50:50;4.45;;;1.85;;
70008;SDS011;59542;37.950;-122.338;2023-05-07T06:53:16;6.10;;;2.10;;
70008;SDS011;59542;37.950;-122.338;2023-05-07T06:55:42;4.50;;;1.83;;
70008;SDS011;59542;37.950;-122.338;2023-05-07T06:58:09;4.43;;;2.03;;
70008;SDS011;59542;37.950;-122.338;2023-05-07T07:00:35;4.78;;;1.98;;
70008;SDS011;59542;37.950;-122.338;2023-05-07T07:03:01;3.60;;;2.08;;
70008;SDS011;59542;37.950;-122.338;2023-05-07T07:05:27;9.10;;;2.13;;
70008;SDS011;59542;37.950;-122.338;2023-05-07T07:07:53;3.45;;;1.90;;
70008;SDS011;59542;37.950;-122.338;2023-05-07T07:10:20;3.90;;;2.13;;
70008;SDS011;59542;37.950;-122.338;2023-05-07T07:12:47;3.55;;;2.25;;
70008;SDS011;59542;37.950;-122.338;2023-05-07T07:15:14;4.35;;;2.45;;
70008;SDS011;59542;37.950;-122.338;2023-05-07T07:17:41;4.55;;;2.50;;
70008;SDS011;59542;37.950;-122.338;2023-05-07T07:20:07;5.63;;;2.10;;
70008;SDS011;59542;37.950;-122.338;2023-05-07T07:22:34;5.03;;;2.80;;
70008;SDS011;59542;37.950;-122.338;2023-05-07T07:25:00;6.13;;;2.95;;
70008;SDS011;59542;37.950;-122.338;2023-05-07T07:27:26;5.50;;;2.80;;
70008;SDS011;59542;37.950;-122.338;2023-05-07T07:29:52;4.25;;;2.33;;
70008;SDS011;59542;37.950;-122.338;2023-05-07T07:32:19;4.22;;;2.15;;
70008;SDS011;59542;37.950;-122.338;2023-05-07T07:34:45;5.10;;;2.75;;
70008;SDS011;59542;37.950;-122.338;2023-05-07T07:37:12;4.90;;;2.70;;
70008;SDS011;59542;37.950;-122.338;2023-05-07T07:39:38;3.25;;;2.47;;
70008;SDS011;59542;37.950;-122.338;2023-05-07T07:42:04;10.35;;;3.50;;
70008;SDS011;59542;37.950;-122.338;2023-05-07T07:44:30;6.50;;;3.55;;
70008;SDS011;59542;37.950;-122.338;2023-05-07T07:46:57;4.45;;;2.90;;
70008;SDS011;59542;37.950;-122.338;2023-05-07T07:49:23;8.38;;;3.53;;
70008;SDS011;59542;37.950;-122.338;2023-05-07T07:51:49;5.53;;;2.95;;
70008;SDS011;59542;37.950;-122.338;2023-05-07T07:54:16;7.57;;;3.20;;
70008;SDS011;59542;37.950;-122.338;2023-05-07T07:56:42;8.52;;;3.33;;
70008;SDS011;59542;37.950;-122.338;2023-05-07T07:59:08;5.70;;;3.05;;
70008;SDS011;59542;37.950;-122.338;2023-05-07T08:01:35;5.97;;;2.80;;
70008;SDS011;59542;37.950;-122.338;2023-05-07T08:04:01;4.88;;;2.90;;
70008;SDS011;59542;37.950;-122.338;2023-05-07T08:06:28;5.25;;;2.95;;
70008;SDS011;59542;37.950;-122.338;2023-05-07T08:08:55;4.95;;;2.42;;
70008;SDS011;59542;37.950;-122.338;2023-05-07T08:11:21;4.47;;;2.63;;
70008;SDS011;59542;37.950;-122.338;2023-05-07T08:13:47;2.85;;;2.30;;
70008;SDS011;59542;37.950;-122.338;2023-05-07T08:16:14;5.32;;;2.42;;
70008;SDS011;59542;37.950;-122.338;2023-05-07T08:18:40;4.05;;;2.30;;
70008;SDS011;59542;37.950;-122.338;2023-05-07T08:21:06;5.47;;;2.50;;
70008;SDS011;59542;37.950;-122.338;2023-05-07T08:23:33;3.90;;;2.50;;
70008;SDS011;59542;37.950;-122.338;2023-05-07T08:26:00;3.30;;;2.58;;
70008;SDS011;59542;37.950;-122.338;2023-05-07T08:28:26;10.52;;;4.85;;
70008;SDS011;59542;37.950;-122.338;2023-05-07T08:30:52;8.95;;;3.50;;
70008;SDS011;59542;37.950;-122.338;2023-05-07T08:33:18;4.90;;;2.90;;
70008;SDS011;59542;37.950;-122.338;2023-05-07T08:35:45;6.47;;;3.25;;
70008;SDS011;59542;37.950;-122.338;2023-05-07T08:38:11;6.68;;;3.17;;
70008;SDS011;59542;37.950;-122.338;2023-05-07T08:40:38;4.57;;;3.22;;
70008;SDS011;59542;37.950;-122.338;2023-05-07T08:43:06;3.88;;;2.72;;
70008;SDS011;59542;37.950;-122.338;2023-05-07T08:45:33;3.25;;;2.50;;
70008;SDS011;59542;37.950;-122.338;2023-05-07T08:48:01;5.80;;;2.85;;
70008;SDS011;59542;37.950;-122.338;2023-05-07T08:50:29;4.97;;;2.55;;
70008;SDS011;59542;37.950;-122.338;2023-05-07T08:52:55;5.03;;;2.45;;
70008;SDS011;59542;37.950;-122.338;2023-05-07T08:55:22;6.45;;;2.55;;
70008;SDS011;59542;37.950;-122.338;2023-05-07T08:57:49;6.30;;;2.63;;
70008;SDS011;59542;37.950;-122.338;2023-05-07T09:00:17;3.85;;;2.70;;
70008;SDS011;59542;37.950;-122.338;2023-05-07T09:02:44;7.80;;;2.80;;
70008;SDS011;59542;37.950;-122.338;2023-05-07T09:05:10;6.75;;;2.70;;
70008;SDS011;59542;37.950;-122.338;2023-05-07T09:07:36;5.63;;;2.97;;
70008;SDS011;59542;37.950;-122.338;2023-05-07T09:10:03;6.97;;;3.10;;
70008;SDS011;59542;37.950;-122.338;2023-05-07T09:12:30;6.68;;;2.83;;
70008;SDS011;59542;37.950;-122.338;2023-05-07T09:14:57;4.25;;;2.83;;
70008;SDS011;59542;37.950;-122.338;2023-05-07T09:17:24;3.83;;;2.80;;
70008;SDS011;59542;37.950;-122.338;2023-05-07T09:19:50;5.47;;;2.70;;
70008;SDS011;59542;37.950;-122.338;2023-05-07T09:22:18;4.80;;;2.40;;
70008;SDS011;59542;37.950;-122.338;2023-05-07T09:24:48;4.40;;;2.10;;
70008;SDS011;59542;37.950;-122.338;2023-05-07T09:27:15;2.47;;;2.05;;
70008;SDS011;59542;37.950;-122.338;2023-05-07T09:29:43;3.03;;;2.00;;
70008;SDS011;59542;37.950;-122.338;2023-05-07T09:32:10;5.75;;;2.45;;
70008;SDS011;59542;37.950;-122.338;2023-05-07T09:34:36;5.38;;;2.88;;
70008;SDS011;59542;37.950;-122.338;2023-05-07T09:37:03;5.50;;;2.17;;
70008;SDS011;59542;37.950;-122.338;2023-05-07T09:39:43;6.60;;;2.10;;
70008;SDS011;59542;37.950;-122.338;2023-05-07T09:42:10;6.97;;;2.42;;
70008;SDS011;59542;37.950;-122.338;2023-05-07T09:44:37;6.13;;;2.40;;
70008;SDS011;59542;37.950;-122.338;2023-05-07T09:47:05;9.90;;;2.65;;
70008;SDS011;59542;37.950;-122.338;2023-05-07T09:49:33;5.85;;;2.70;;
70008;SDS011;59542;37.950;-122.338;2023-05-07T09:52:02;4.60;;;3.15;;
70008;SDS011;59542;37.950;-122.338;2023-05-07T09:54:32;5.22;;;2.85;;
70008;SDS011;59542;37.950;-122.338;2023-05-07T09:56:59;8.00;;;2.63;;
70008;SDS011;59542;37.950;-122.338;2023-05-07T09:59:28;5.72;;;2.97;;
70008;SDS011;59542;37.950;-122.338;2023-05-07T10:01:57;5.00;;;2.65;;
70008;SDS011;59542;37.950;-122.338;2023-05-07T10:04:25;5.75;;;2.58;;
70008;SDS011;59542;37.950;-122.338;2023-05-07T10:06:52;3.13;;;2.45;;
70008;SDS011;59542;37.950;-122.338;2023-05-07T10:09:21;7.13;;;2.95;;
70008;SDS011;59542;37.950;-122.338;2023-05-07T10:11:49;6.00;;;2.65;;
70008;SDS011;59542;37.950;-122.338;2023-05-07T10:14:15;5.25;;;2.88;;
70008;SDS011;59542;37.950;-122.338;2023-05-07T10:16:42;3.67;;;2.63;;
70008;SDS011;59542;37.950;-122.338;2023-05-07T10:19:10;6.95;;;3.00;;
70008;SDS011;59542;37.950;-122.338;2023-05-07T10:21:36;7.70;;;3.10;;
70008;SDS011;59542;37.950;-122.338;2023-05-07T10:24:04;7.80;;;3.30;;
70008;SDS011;59542;37.950;-122.338;2023-05-07T10:26:40;6.47;;;2.72;;
70008;SDS011;59542;37.950;-122.338;2023-05-07T10:29:18;10.00;;;2.85;;
70008;SDS011;59542;37.950;-122.338;2023-05-07T10:31:57;3.92;;;2.30;;
70008;SDS011;59542;37.950;-122.338;2023-05-07T10:34:29;6.03;;;3.20;;
70008;SDS011;59542;37.950;-122.338;2023-05-07T10:37:01;3.72;;;2.45;;
70008;SDS011;59542;37.950;-122.338;2023-05-07T10:39:29;7.28;;;2.53;;
70008;SDS011;59542;37.950;-122.338;2023-05-07T10:41:56;6.68;;;2.60;;
70008;SDS011;59542;37.950;-122.338;2023-05-07T10:44:32;7.15;;;2.80;;
70008;SDS011;59542;37.950;-122.338;2023-05-07T10:52:19;4.90;;;2.85;;
70008;SDS011;59542;37.950;-122.338;2023-05-07T10:54:48;6.47;;;2.88;;
70008;SDS011;59542;37.950;-122.338;2023-05-07T10:57:40;6.78;;;3.10;;
70008;SDS011;59542;37.950;-122.338;2023-05-07T11:08:02;4.88;;;3.17;;
70008;SDS011;59542;37.950;-122.338;2023-05-07T11:10:48;5.93;;;3.20;;
70008;SDS011;59542;37.950;-122.338;2023-05-07T11:13:15;5.97;;;3.03;;
70008;SDS011;59542;37.950;-122.338;2023-05-07T11:15:43;7.82;;;3.33;;
70008;SDS011;59542;37.950;-122.338;2023-05-07T11:18:13;8.95;;;3.40;;
70008;SDS011;59542;37.950;-122.338;2023-05-07T11:20:44;8.70;;;2.90;;
70008;SDS011;59542;37.950;-122.338;2023-05-07T11:26:06;5.80;;;3.25;;
70008;SDS011;59542;37.950;-122.338;2023-05-07T11:28:40;6.35;;;3.55;;
70008;SDS011;59542;37.950;-122.338;2023-05-07T11:31:08;6.78;;;3.67;;
70008;SDS011;59542;37.950;-122.338;2023-05-07T11:33:36;6.30;;;2.90;;
70008;SDS011;59542;37.950;-122.338;2023-05-07T11:36:03;7.22;;;3.15;;
70008;SDS011;59542;37.950;-122.338;2023-05-07T11:38:30;8.23;;;3.20;;
70008;SDS011;59542;37.950;-122.338;2023-05-07T11:41:00;6.13;;;3.15;;
70008;SDS011;59542;37.950;-122.338;2023-05-07T11:43:27;8.07;;;3.70;;
70008;SDS011;59542;37.950;-122.338;2023-05-07T11:45:54;4.22;;;3.17;;
70008;SDS011;59542;37.950;-122.338;2023-05-07T11:48:21;6.10;;;3.60;;
70008;SDS011;59542;37.950;-122.338;2023-05-07T11:50:51;10.10;;;3.97;;
70008;SDS011;59542;37.950;-122.338;2023-05-07T11:53:19;10.48;;;3.90;;
70008;SDS011;59542;37.950;-122.338;2023-05-07T11:55:46;7.18;;;3.75;;
70008;SDS011;59542;37.950;-122.338;2023-05-07T11:58:12;5.57;;;3.55;;
70008;SDS011;59542;37.950;-122.338;2023-05-07T12:00:50;5.28;;;3.80;;
70008;SDS011;59542;37.950;-122.338;2023-05-07T12:03:17;8.25;;;3.78;;
70008;SDS011;59542;37.950;-122.338;2023-05-07T12:05:44;7.35;;;3.72;;
70008;SDS011;59542;37.950;-122.338;2023-05-07T12:08:18;9.82;;;4.53;;
70008;SDS011;59542;37.950;-122.338;2023-05-07T12:10:46;8.73;;;4.22;;
70008;SDS011;59542;37.950;-122.338;2023-05-07T12:13:15;6.15;;;3.58;;
70008;SDS011;59542;37.950;-122.338;2023-05-07T12:15:42;6.43;;;3.22;;
70008;SDS011;59542;37.950;-122.338;2023-05-07T12:18:08;5.13;;;3.38;;
70008;SDS011;59542;37.950;-122.338;2023-05-07T12:20:36;7.65;;;4.00;;
70008;SDS011;59542;37.950;-122.338;2023-05-07T12:23:02;5.47;;;3.50;;
70008;SDS011;59542;37.950;-122.338;2023-05-07T12:25:34;9.13;;;3.28;;
70008;SDS011;59542;37.950;-122.338;2023-05-07T12:28:02;7.00;;;3.90;;
70008;SDS011;59542;37.950;-122.338;2023-05-07T12:30:37;6.40;;;3.70;;
70008;SDS011;59542;37.950;-122.338;2023-05-07T12:33:04;5.47;;;3.90;;
70008;SDS011;59542;37.950;-122.338;2023-05-07T12:35:31;9.90;;;3.90;;
70008;SDS011;59542;37.950;-122.338;2023-05-07T12:38:01;7.90;;;3.90;;
70008;SDS011;59542;37.950;-122.338;2023-05-07T12:40:37;14.13;;;4.28;;
70008;SDS011;59542;37.950;-122.338;2023-05-07T12:45:46;6.85;;;4.63;;
70008;SDS011;59542;37.950;-122.338;2023-05-07T12:48:14;9.80;;;4.97;;
70008;SDS011;59542;37.950;-122.338;2023-05-07T12:50:40;8.63;;;4.25;;
70008;SDS011;59542;37.950;-122.338;2023-05-07T12:53:07;11.73;;;4.70;;
70008;SDS011;59542;37.950;-122.338;2023-05-07T12:55:43;11.05;;;4.60;;
70008;SDS011;59542;37.950;-122.338;2023-05-07T12:58:15;9.13;;;4.70;;
70008;SDS011;59542;37.950;-122.338;2023-05-07T13:00:43;6.15;;;4.05;;
70008;SDS011;59542;37.950;-122.338;2023-05-07T13:03:10;5.88;;;4.20;;
70008;SDS011;59542;37.950;-122.338;2023-05-07T13:05:37;6.00;;;4.15;;
70008;SDS011;59542;37.950;-122.338;2023-05-07T13:08:03;8.75;;;4.32;;
70008;SDS011;59542;37.950;-122.338;2023-05-07T13:10:30;8.48;;;4.38;;
70008;SDS011;59542;37.950;-122.338;2023-05-07T13:12:57;8.13;;;5.10;;
70008;SDS011;59542;37.950;-122.338;2023-05-07T13:15:24;13.85;;;5.93;;
70008;SDS011;59542;37.950;-122.338;2023-05-07T13:17:52;11.45;;;5.68;;
70008;SDS011;59542;37.950;-122.338;2023-05-07T13:20:18;7.53;;;4.88;;
70008;SDS011;59542;37.950;-122.338;2023-05-07T13:22:44;9.38;;;4.72;;
70008;SDS011;59542;37.950;-122.338;2023-05-07T13:25:11;8.23;;;5.05;;
70008;SDS011;59542;37.950;-122.338;2023-05-07T13:27:37;6.78;;;5.03;;
70008;SDS011;59542;37.950;-122.338;2023-05-07T13:30:03;9.38;;;5.97;;
70008;SDS011;59542;37.950;-122.338;2023-05-07T13:32:30;10.77;;;5.20;;
70008;SDS011;59542;37.950;-122.338;2023-05-07T13:34:57;7.95;;;5.05;;
70008;SDS011;59542;37.950;-122.338;2023-05-07T13:37:23;10.43;;;5.15;;
70008;SDS011;59542;37.950;-122.338;2023-05-07T13:39:49;7.55;;;4.75;;
70008;SDS011;59542;37.950;-122.338;2023-05-07T13:42:16;7.63;;;5.15;;
70008;SDS011;59542;37.950;-122.338;2023-05-07T13:44:42;6.45;;;4.50;;
70008;SDS011;59542;37.950;-122.338;2023-05-07T13:47:09;9.27;;;4.40;;
70008;SDS011;59542;37.950;-122.338;2023-05-07T13:49:35;11.95;;;5.45;;
70008;SDS011;59542;37.950;-122.338;2023-05-07T13:52:01;10.82;;;4.53;;
70008;SDS011;59542;37.950;-122.338;2023-05-07T13:54:28;13.68;;;5.30;;
70008;SDS011;59542;37.950;-122.338;2023-05-07T13:56:54;10.80;;;5.13;;
70008;SDS011;59542;37.950;-122.338;2023-05-07T13:59:20;8.80;;;5.15;;
70008;SDS011;59542;37.950;-122.338;2023-05-07T14:01:47;7.38;;;4.65;;
70008;SDS011;59542;37.950;-122.338;2023-05-07T14:04:13;13.85;;;5.03;;
70008;SDS011;59542;37.950;-122.338;2023-05-07T14:06:39;10.80;;;4.72;;
70008;SDS011;59542;37.950;-122.338;2023-05-07T14:09:05;9.73;;;5.18;;
70008;SDS011;59542;37.950;-122.338;2023-05-07T14:11:32;11.38;;;4.97;;
70008;SDS011;59542;37.950;-122.338;2023-05-07T14:13:58;10.27;;;4.80;;
70008;SDS011;59542;37.950;-122.338;2023-05-07T14:16:24;9.45;;;5.13;;
70008;SDS011;59542;37.950;-122.338;2023-05-07T14:18:50;7.88;;;5.05;;
70008;SDS011;59542;37.950;-122.338;2023-05-07T14:21:17;5.65;;;4.05;;
70008;SDS011;59542;37.950;-122.338;2023-05-07T14:23:43;7.30;;;4.00;;
70008;SDS011;59542;37.950;-122.338;2023-05-07T14:26:09;10.13;;;3.90;;
70008;SDS011;59542;37.950;-122.338;2023-05-07T14:28:35;7.25;;;3.85;;